Time;durP1;ratioP1;P1;durP2;ratioP2;P2;SDS_P1;SDS_P2;PMS_P1;PMS_P2;Temp;Humidity;BMP_temperature;BMP_pressure;BME280_temperature;BME280_humidity;BME280_pressure;Samples;Min_cycle;Max_cycle;Signal;HPM_P1;HPM_P2
2022/05/06 00:01:05;;;;;;;14.30;8.93;;;;;;;15.21;96.01;100631.03;5057092;28;20041;-76
2022/05/06 00:03:33;;;;;;;11.50;8.98;;;;;;;15.28;95.18;100635.88;5056852;28;20075;-75
2022/05/06 00:06:02;;;;;;;11.85;8.73;;;;;;;15.36;94.58;100636.16;5057071;28;20099;-75
2022/05/06 00:08:30;;;;;;;12.68;8.60;;;;;;;15.44;93.33;100636.47;5056703;28;20140;-75
2022/05/06 00:10:59;;;;;;;11.60;8.95;;;;;;;15.37;94.19;100629.81;5056990;28;20051;-75
2022/05/06 00:13:28;;;;;;;11.00;8.45;;;;;;;15.42;93.63;100624.94;5055365;28;20045;-75
2022/05/06 00:15:56;;;;;;;10.60;8.70;;;;;;;15.38;94.44;100625.28;5055537;28;20137;-75
2022/05/06 00:18:26;;;;;;;12.02;9.48;;;;;;;15.33;94.96;100628.31;5056624;28;20041;-75
2022/05/06 00:20:55;;;;;;;13.82;9.32;;;;;;;15.17;96.94;100628.59;5055263;28;20055;-75
2022/05/06 00:23:23;;;;;;;12.85;9.00;;;;;;;15.11;98.13;100625.50;5055146;28;20064;-75
2022/05/06 00:25:51;;;;;;;13.90;9.35;;;;;;;15.05;99.58;100636.66;5055091;28;20143;-75
2022/05/06 00:28:21;;;;;;;12.70;9.43;;;;;;;14.93;100.00;100632.19;5054979;28;20072;-76
2022/05/06 00:30:49;;;;;;;11.32;9.55;;;;;;;14.93;100.00;100632.19;5055373;28;20053;-74
2022/05/06 00:33:24;;;;;;;12.30;10.38;;;;;;;14.84;100.00;100633.72;5055195;28;20057;-77
2022/05/06 00:35:54;;;;;;;14.73;10.98;;;;;;;14.87;100.00;100637.06;5056641;28;20488;-75
2022/05/06 00:38:23;;;;;;;13.80;10.75;;;;;;;14.89;100.00;100637.78;5055025;28;20051;-75
2022/05/06 00:40:52;;;;;;;15.43;11.63;;;;;;;14.79;100.00;100638.56;5055044;28;20049;-74
2022/05/06 00:43:21;;;;;;;15.88;11.52;;;;;;;14.66;100.00;100645.75;5056319;28;20045;-74
2022/05/06 00:45:52;;;;;;;13.50;10.98;;;;;;;14.53;100.00;100629.69;5056314;28;20493;-74
2022/05/06 00:48:26;;;;;;;14.95;11.88;;;;;;;14.48;100.00;100637.22;5056057;28;20098;-74
2022/05/06 00:50:59;;;;;;;16.42;12.00;;;;;;;14.48;100.00;100639.91;5056379;28;20048;-75
2022/05/06 00:53:27;;;;;;;17.30;11.95;;;;;;;14.53;100.00;100633.22;5056020;28;20094;-75
2022/05/06 00:55:57;;;;;;;18.45;14.25;;;;;;;14.76;100.00;100628.88;5056073;28;20548;-74
2022/05/06 00:58:29;;;;;;;17.17;14.05;;;;;;;14.66;100.00;100635.88;5055920;28;20079;-75
2022/05/06 01:00:57;;;;;;;17.60;13.05;;;;;;;14.53;100.00;100629.69;5056216;28;20040;-75
2022/05/06 01:03:25;;;;;;;17.25;11.77;;;;;;;14.75;100.00;100637.91;5054525;28;20460;-75
2022/05/06 01:05:54;;;;;;;16.48;12.93;;;;;;;14.60;100.00;100641.69;5055867;28;20079;-80
2022/05/06 01:08:24;;;;;;;15.90;12.45;;;;;;;14.47;100.00;100641.69;5055488;28;20047;-81
2022/05/06 01:10:52;;;;;;;17.02;12.13;;;;;;;14.46;100.00;100644.47;5055855;28;20063;-80
2022/05/06 01:13:21;;;;;;;13.55;11.30;;;;;;;14.62;100.00;100631.72;5055983;28;20480;-80
2022/05/06 01:15:49;;;;;;;13.73;11.20;;;;;;;14.49;100.00;100638.91;5056073;28;20037;-80
2022/05/06 01:18:18;;;;;;;16.92;12.30;;;;;;;14.40;100.00;100640.38;5055736;28;20494;-80
2022/05/06 01:20:50;;;;;;;15.75;11.40;;;;;;;14.43;100.00;100642.00;5055423;28;20063;-80
2022/05/06 01:23:23;;;;;;;17.55;11.38;;;;;;;14.52;100.00;100644.06;5083679;28;20120;-79
2022/05/06 01:25:52;;;;;;;15.00;12.10;;;;;;;14.65;100.00;100639.53;5096114;28;20051;-78
2022/05/06 01:28:22;;;;;;;16.15;11.65;;;;;;;14.55;100.00;100647.38;5095502;28;20048;-78
2022/05/06 01:30:58;;;;;;;14.10;11.48;;;;;;;14.48;100.00;100654.16;5078172;28;20043;-74
2022/05/06 01:33:29;;;;;;;16.90;12.35;;;;;;;14.50;100.00;100652.22;5095536;28;20128;-75
2022/05/06 01:36:01;;;;;;;15.48;11.27;;;;;;;14.47;100.00;100647.06;5077712;28;20101;-74
2022/05/06 01:38:37;;;;;;;17.38;11.52;;;;;;;14.53;100.00;100646.63;5095458;28;20051;-74
2022/05/06 01:41:09;;;;;;;18.75;11.88;;;;;;;14.53;100.00;100641.28;5095585;28;20123;-75
2022/05/06 01:43:40;;;;;;;15.43;11.23;;;;;;;14.65;100.00;100650.28;5095352;28;20396;-74
2022/05/06 01:46:13;;;;;;;14.43;11.52;;;;;;;14.66;100.00;100652.00;5095511;28;20040;-74
2022/05/06 01:48:43;;;;;;;15.50;10.52;;;;;;;14.77;100.00;100649.44;5095146;28;20127;-74
2022/05/06 01:51:15;;;;;;;15.32;10.98;;;;;;;14.78;100.00;100648.47;5095295;28;20066;-75
2022/05/06 01:53:45;;;;;;;14.82;11.82;;;;;;;14.60;100.00;100642.56;5095085;28;20044;-74
2022/05/06 01:56:17;;;;;;;15.80;11.52;;;;;;;14.63;100.00;100636.09;5095236;28;20048;-74
2022/05/06 01:58:46;;;;;;;13.60;11.18;;;;;;;14.42;100.00;100640.28;5095031;28;20126;-75
2022/05/06 02:01:18;;;;;;;13.35;11.38;;;;;;;14.35;100.00;100642.53;5094964;28;20091;-75
2022/05/06 02:06:32;;;;;;;16.27;11.80;;;;;;;14.40;100.00;100640.38;5094905;28;20067;-75
2022/05/06 02:09:02;;;;;;;14.50;10.45;;;;;;;14.48;100.00;100642.56;5094636;28;20172;-75
2022/05/06 02:11:30;;;;;;;12.32;10.23;;;;;;;14.62;100.00;100645.13;5094413;28;20055;-73
2022/05/06 02:13:59;;;;;;;13.77;10.68;;;;;;;14.58;100.00;100635.59;5095072;28;20401;-71
2022/05/06 02:16:28;;;;;;;12.57;10.93;;;;;;;14.47;100.00;100640.81;5094053;28;20036;-72
2022/05/06 02:18:57;;;;;;;13.10;10.95;;;;;;;14.28;100.00;100636.75;5095032;28;20071;-71
2022/05/06 02:21:25;;;;;;;15.10;10.70;;;;;;;14.32;100.00;100640.91;5094412;28;20097;-71
2022/05/06 02:23:53;;;;;;;14.27;11.80;;;;;;;14.37;100.00;100632.53;5094223;28;20052;-71
2022/05/06 02:26:23;;;;;;;12.63;10.63;;;;;;;14.43;100.00;100642.00;5094611;28;20122;-71
2022/05/06 02:28:51;;;;;;;15.45;10.85;;;;;;;14.21;100.00;100638.13;5094249;28;20047;-72
2022/05/06 02:34:05;;;;;;;16.45;11.95;;;;;;;14.13;100.00;100643.16;5076432;28;20048;-72
2022/05/06 02:36:34;;;;;;;15.50;11.55;;;;;;;14.24;100.00;100643.28;5094240;28;20044;-71
2022/05/06 02:39:02;;;;;;;14.35;10.85;;;;;;;14.29;100.00;100643.81;5094415;28;20122;-71
2022/05/06 02:41:31;;;;;;;14.30;11.18;;;;;;;14.13;100.00;100640.47;5075921;28;20051;-71
2022/05/06 02:44:00;;;;;;;13.98;11.10;;;;;;;14.16;100.00;100637.56;5094410;28;20370;-71
2022/05/06 02:46:28;;;;;;;15.27;11.05;;;;;;;14.03;100.00;100625.97;5094264;28;20055;-71
2022/05/06 02:48:56;;;;;;;14.25;10.80;;;;;;;14.12;100.00;100636.06;5075870;28;20058;-71
2022/05/06 02:51:25;;;;;;;13.75;11.52;;;;;;;14.09;100.00;100636.28;5094450;28;20051;-71
2022/05/06 02:53:56;;;;;;;14.73;11.63;;;;;;;14.03;100.00;100631.34;5094344;28;20046;-73
2022/05/06 02:56:24;;;;;;;14.18;11.30;;;;;;;14.04;100.00;100644.66;5094125;28;20050;-73
2022/05/06 02:58:54;;;;;;;15.27;11.93;;;;;;;13.92;100.00;100639.25;5093602;28;20044;-75
2022/05/06 03:01:22;;;;;;;15.50;11.68;;;;;;;13.94;100.00;100642.69;5075847;28;20044;-75
2022/05/06 03:03:51;;;;;;;12.38;10.75;;;;;;;14.14;100.00;100644.88;5093829;28;20090;-75
2022/05/06 03:06:20;;;;;;;16.27;11.07;;;;;;;13.96;100.00;100630.03;5093688;28;20127;-76
2022/05/06 03:08:48;;;;;;;14.85;11.93;;;;;;;13.99;100.00;100624.44;5093658;28;20067;-76
2022/05/06 03:11:16;;;;;;;14.05;11.30;;;;;;;14.02;100.00;100624.25;5075784;28;20390;-76
2022/05/06 03:13:45;;;;;;;15.30;12.23;;;;;;;13.96;100.00;100619.31;5075339;28;20053;-76
2022/05/06 03:16:15;;;;;;;14.07;11.65;;;;;;;13.90;100.00;100617.91;5093788;28;20071;-75
2022/05/06 03:18:43;;;;;;;18.60;11.95;;;;;;;13.87;100.00;100628.84;5093772;28;20056;-75
2022/05/06 03:21:11;;;;;;;16.40;13.23;;;;;;;13.81;100.00;100623.91;5093867;28;20040;-74
2022/05/06 03:23:39;;;;;;;15.63;12.35;;;;;;;13.77;100.00;100626.88;5093783;28;20054;-75
2022/05/06 03:26:09;;;;;;;16.45;11.70;;;;;;;13.82;100.00;100638.16;5075603;28;20471;-75
2022/05/06 03:28:38;;;;;;;16.35;12.15;;;;;;;13.85;100.00;100636.13;5092499;28;20040;-75
2022/05/06 03:31:06;;;;;;;18.40;12.25;;;;;;;13.78;100.00;100633.97;5093509;28;20123;-74
2022/05/06 03:33:36;;;;;;;13.32;11.27;;;;;;;13.75;100.00;100643.06;5092956;28;20048;-74
2022/05/06 03:36:05;;;;;;;16.42;11.70;;;;;;;13.76;100.00;100642.13;5093196;28;20107;-73
2022/05/06 03:38:33;;;;;;;15.38;11.77;;;;;;;13.79;100.00;100641.03;5093355;28;20051;-76
2022/05/06 03:41:02;;;;;;;14.70;10.57;;;;;;;13.80;100.00;100646.31;5093584;28;20488;-76
2022/05/06 03:43:30;;;;;;;16.08;11.50;;;;;;;13.92;100.00;100656.22;5093607;28;20496;-76
2022/05/06 03:45:58;;;;;;;14.18;10.77;;;;;;;14.12;100.00;100649.50;5093582;28;20040;-75
2022/05/06 03:48:26;;;;;;;11.90;9.98;;;;;;;14.17;100.00;100649.16;5075095;28;20044;-75
2022/05/06 03:53:55;;;;;;;15.70;10.63;;;;;;;14.03;100.00;100648.28;5050649;28;20114;-77
2022/05/06 03:56:25;;;;;;;13.02;9.73;;;;;;;14.22;100.00;100642.53;5084031;28;20467;-77
2022/05/06 03:58:53;;;;;;;14.13;10.45;;;;;;;14.22;100.00;100653.25;5091823;28;20566;-71
2022/05/06 04:01:21;;;;;;;12.05;10.40;;;;;;;14.27;100.00;100647.56;5093267;28;20519;-73
2022/05/06 04:03:50;;;;;;;13.40;10.40;;;;;;;14.28;100.00;100654.63;5092632;28;20048;-74
2022/05/06 04:06:19;;;;;;;15.30;10.52;;;;;;;14.23;100.00;100654.97;5074973;28;20059;-74
2022/05/06 04:08:48;;;;;;;19.33;11.00;;;;;;;14.35;100.00;100652.41;5074636;28;20044;-74
2022/05/06 04:11:17;;;;;;;12.10;10.00;;;;;;;14.39;100.00;100661.97;5093030;28;20119;-73
2022/05/06 04:13:46;;;;;;;14.05;10.48;;;;;;;14.39;100.00;100667.34;5092536;28;20036;-73
2022/05/06 04:16:14;;;;;;;13.45;9.50;;;;;;;14.51;100.00;100666.50;5074846;28;20059;-73
2022/05/06 04:18:45;;;;;;;13.70;9.55;;;;;;;14.75;100.00;100672.81;5092830;28;20047;-73
2022/05/06 04:24:00;;;;;;;12.43;9.25;;;;;;;14.58;100.00;100676.72;5074146;28;20060;-73
2022/05/06 04:26:28;;;;;;;13.23;9.48;;;;;;;14.55;100.00;100686.78;5075248;28;20076;-72
2022/05/06 04:28:56;;;;;;;14.23;9.73;;;;;;;14.82;100.00;100687.53;5091379;28;20377;-72
2022/05/06 04:31:27;;;;;;;11.30;9.40;;;;;;;14.83;100.00;100694.63;5092947;28;20504;-71
2022/05/06 04:33:55;;;;;;;14.93;9.75;;;;;;;14.92;100.00;100695.81;5092679;28;20127;-71
2022/05/06 04:36:24;;;;;;;11.85;9.35;;;;;;;15.03;97.56;100693.19;5093047;28;20554;-70
2022/05/06 04:38:52;;;;;;;12.85;9.88;;;;;;;15.21;97.96;100695.53;5092491;28;20044;-71
2022/05/06 04:41:21;;;;;;;13.80;9.90;;;;;;;15.10;98.58;100696.31;5096625;28;20374;-71
2022/05/06 04:43:50;;;;;;;13.88;10.32;;;;;;;15.23;97.17;100694.44;5096340;28;20448;-70
2022/05/06 04:46:18;;;;;;;15.82;10.20;;;;;;;16.06;91.18;100693.72;5076979;28;20048;-71
2022/05/06 04:48:46;;;;;;;11.57;9.27;;;;;;;16.26;88.06;100693.91;5096198;28;20378;-71
2022/05/06 04:51:14;;;;;;;14.02;10.07;;;;;;;16.16;88.60;100694.75;5094906;28;20052;-71
2022/05/06 04:53:43;;;;;;;15.13;10.05;;;;;;;16.21;88.35;100692.53;5095696;28;20048;-73
2022/05/06 04:56:11;;;;;;;12.45;9.85;;;;;;;16.35;86.90;100695.03;5078154;28;20098;-71
2022/05/06 04:58:41;;;;;;;12.32;9.13;;;;;;;16.14;88.64;100694.00;5094901;28;20097;-72
2022/05/06 05:01:09;;;;;;;11.50;8.77;;;;;;;16.24;86.37;100698.56;5096067;28;20044;-71
2022/05/06 05:03:39;;;;;;;13.75;9.40;;;;;;;16.25;87.35;100699.41;5095922;28;20438;-80
2022/05/06 05:06:07;;;;;;;12.75;9.43;;;;;;;16.22;86.61;100705.03;5095987;28;20469;-77
2022/05/06 05:08:38;;;;;;;12.18;8.98;;;;;;;16.11;87.75;100704.97;5077808;28;20087;-70
2022/05/06 05:11:06;;;;;;;16.00;9.20;;;;;;;16.18;85.71;100704.41;5077969;28;20048;-70
2022/05/06 05:13:38;;;;;;;16.08;9.50;;;;;;;16.18;84.31;100703.53;5095989;28;20040;-70
2022/05/06 05:16:08;;;;;;;11.52;8.60;;;;;;;16.36;82.75;100706.66;5095556;28;20064;-69
2022/05/06 05:18:36;;;;;;;12.90;9.55;;;;;;;16.23;83.69;100704.06;5077715;28;20048;-70
2022/05/06 05:21:04;;;;;;;13.10;9.00;;;;;;;16.29;83.06;100706.28;5094552;28;20140;-70
2022/05/06 05:23:32;;;;;;;12.55;9.27;;;;;;;16.21;82.50;100714.06;5093595;28;20084;-71
2022/05/06 05:26:03;;;;;;;13.38;8.63;;;;;;;16.18;82.74;100715.16;5095192;28;20105;-70
2022/05/06 05:28:31;;;;;;;14.40;9.05;;;;;;;16.17;83.02;100718.84;5077517;28;20052;-70
2022/05/06 05:30:59;;;;;;;12.48;8.80;;;;;;;16.15;83.11;100717.25;5095356;28;20040;-72
2022/05/06 05:33:29;;;;;;;11.10;9.15;;;;;;;16.31;82.33;100710.59;5094398;28;20044;-70
2022/05/06 05:35:57;;;;;;;11.73;8.82;;;;;;;16.34;80.09;100714.88;5076629;28;20040;-71
2022/05/06 05:38:25;;;;;;;11.45;8.63;;;;;;;16.02;81.05;100712.81;5093914;28;20047;-71
2022/05/06 05:40:53;;;;;;;12.82;9.43;;;;;;;16.17;80.15;100704.53;5077024;28;20059;-72
2022/05/06 05:48:58;;;;;;;12.80;9.07;;;;;;;16.25;79.42;100708.34;5076808;28;20128;-70
2022/05/06 05:51:26;;;;;;;13.27;8.85;;;;;;;16.30;78.57;100713.38;5092499;28;20048;-71
2022/05/06 05:53:55;;;;;;;11.13;9.20;;;;;;;16.40;78.14;100711.69;5094654;28;20489;-72
2022/05/06 05:56:23;;;;;;;17.33;9.32;;;;;;;16.26;80.19;100722.66;5076769;28;20048;-72
2022/05/06 05:58:51;;;;;;;12.75;9.65;;;;;;;16.50;78.50;100726.19;5076466;28;20052;-72
2022/05/06 06:01:20;;;;;;;11.80;9.18;;;;;;;16.46;78.75;100719.28;5094990;28;20040;-72
2022/05/06 06:03:48;;;;;;;14.00;9.43;;;;;;;16.38;79.34;100716.34;5094421;28;20051;-75
2022/05/06 06:06:18;;;;;;;14.93;9.82;;;;;;;16.41;79.58;100726.88;5094965;28;20036;-72
2022/05/06 06:08:46;;;;;;;12.65;8.77;;;;;;;16.58;76.96;100729.09;5094304;28;20043;-70
2022/05/06 06:11:14;;;;;;;10.63;8.13;;;;;;;16.43;76.15;100724.94;5093040;28;20048;-73
2022/05/06 06:13:45;;;;;;;14.70;8.75;;;;;;;16.39;76.66;100733.34;5094590;28;20047;-76
2022/05/06 06:16:13;;;;;;;11.18;8.23;;;;;;;16.45;75.36;100727.50;5077042;28;20441;-77
2022/05/06 06:18:42;;;;;;;11.63;8.30;;;;;;;16.43;75.17;100730.31;5084288;28;20059;-74
2022/05/06 06:21:10;;;;;;;11.13;7.88;;;;;;;16.39;75.01;100728.81;5093345;28;20101;-75
2022/05/06 06:23:40;;;;;;;13.43;8.40;;;;;;;16.53;75.35;100731.31;5093150;28;20056;-77
2022/05/06 06:26:08;;;;;;;11.82;8.43;;;;;;;16.60;73.94;100731.72;5092897;28;20050;-77
2022/05/06 06:28:37;;;;;;;11.95;8.00;;;;;;;16.69;73.82;100731.00;5093233;28;20408;-75
2022/05/06 06:31:05;;;;;;;10.43;7.72;;;;;;;16.79;73.27;100733.81;5092995;28;20052;-79
2022/05/06 06:33:37;;;;;;;14.65;8.50;;;;;;;16.58;74.19;100739.88;5093155;28;20044;-78
2022/05/06 06:36:06;;;;;;;12.00;8.48;;;;;;;16.52;74.96;100737.69;5094324;28;20040;-78
2022/05/06 06:38:35;;;;;;;11.35;8.40;;;;;;;16.64;74.53;100740.41;5092993;28;20130;-74
2022/05/06 06:41:05;;;;;;;13.70;8.95;;;;;;;16.56;74.39;100738.28;5094062;28;20404;-75
2022/05/06 06:43:34;;;;;;;14.32;8.65;;;;;;;16.67;74.25;100741.00;5093030;28;20075;-73
2022/05/06 06:46:08;;;;;;;11.05;8.50;;;;;;;16.60;73.96;100740.66;5093947;28;20114;-74
2022/05/06 06:48:39;;;;;;;11.90;8.70;;;;;;;16.47;75.44;100731.78;5092961;28;20055;-75
2022/05/06 06:51:07;;;;;;;12.32;8.63;;;;;;;16.60;74.83;100735.25;5092262;28;20453;-74
2022/05/06 06:53:36;;;;;;;13.40;9.02;;;;;;;16.63;74.09;100733.28;5093738;28;20489;-75
2022/05/06 06:56:06;;;;;;;11.38;8.23;;;;;;;16.94;73.37;100734.47;5092291;28;20513;-75
2022/05/06 06:58:34;;;;;;;11.55;8.65;;;;;;;16.77;72.45;100728.56;5093808;28;20123;-73
2022/05/06 07:01:03;;;;;;;11.95;8.57;;;;;;;16.86;72.69;100733.22;5092288;28;20056;-73
2022/05/06 07:03:32;;;;;;;11.82;8.20;;;;;;;16.87;72.61;100729.56;5093287;28;20477;-73
2022/05/06 07:14:23;;;;;;;13.45;8.35;;;;;;;17.32;70.67;100724.19;5082068;28;20056;-76
2022/05/06 07:16:52;;;;;;;13.93;8.60;;;;;;;17.36;71.61;100730.16;5090258;28;20477;-75
2022/05/06 07:19:21;;;;;;;13.25;8.90;;;;;;;17.30;70.87;100728.84;5093328;28;20105;-75
2022/05/06 07:21:52;;;;;;;10.40;8.45;;;;;;;17.32;71.27;100732.25;5091872;28;20105;-76
2022/05/06 07:24:24;;;;;;;11.43;8.50;;;;;;;17.54;69.95;100728.66;5093254;28;20432;-75
2022/05/06 07:26:54;;;;;;;11.73;8.60;;;;;;;17.56;70.59;100726.69;5091721;28;20040;-78
2022/05/06 07:29:22;;;;;;;11.63;8.68;;;;;;;17.27;71.35;100725.50;5092097;28;20052;-76
2022/05/06 07:31:51;;;;;;;11.68;8.52;;;;;;;17.61;69.38;100724.50;5093290;28;20040;-76
2022/05/06 07:34:19;;;;;;;10.50;7.90;;;;;;;17.93;69.05;100723.69;5091938;28;20101;-76
2022/05/06 07:36:48;;;;;;;13.50;8.32;;;;;;;18.03;67.75;100725.50;5093388;28;20040;-75
2022/05/06 07:39:16;;;;;;;13.77;8.80;;;;;;;18.10;67.08;100725.84;5091441;28;20055;-75
2022/05/06 07:41:45;;;;;;;10.90;7.72;;;;;;;18.12;66.50;100734.66;5093421;28;20096;-73
2022/05/06 07:44:15;;;;;;;10.23;7.47;;;;;;;18.14;67.34;100738.09;5091741;28;20055;-73
2022/05/06 07:46:43;;;;;;;14.00;8.65;;;;;;;18.11;68.03;100734.81;5091596;28;20139;-73
2022/05/06 07:49:11;;;;;;;11.77;7.53;;;;;;;18.57;65.63;100734.47;5091608;28;20528;-73
2022/05/06 07:51:39;;;;;;;11.50;8.35;;;;;;;18.58;64.97;100736.16;5091325;28;20056;-73
2022/05/06 07:54:08;;;;;;;10.45;7.85;;;;;;;18.92;62.92;100733.28;5091441;28;20098;-73
2022/05/06 07:56:36;;;;;;;14.20;8.30;;;;;;;18.86;63.55;100732.81;5093099;28;20153;-73
2022/05/06 07:59:05;;;;;;;11.73;7.50;;;;;;;18.86;64.18;100735.53;5092918;28;20072;-73
2022/05/06 08:04:36;;;;;;;13.07;8.32;;;;;;;18.75;63.14;100729.34;5092811;28;20093;-73
2022/05/06 08:07:06;;;;;;;10.98;7.22;;;;;;;18.56;65.44;100728.19;5091640;28;20409;-73
2022/05/06 08:09:34;;;;;;;11.38;7.35;;;;;;;18.59;64.33;100722.53;5091752;28;20123;-73
2022/05/06 08:12:04;;;;;;;12.10;7.78;;;;;;;18.80;64.52;100730.63;5092729;28;20040;-73
2022/05/06 08:14:33;;;;;;;10.93;7.80;;;;;;;18.85;63.73;100739.22;5092763;28;20056;-72
2022/05/06 08:17:03;;;;;;;9.95;7.40;;;;;;;19.27;62.48;100728.31;5095515;28;20048;-71
2022/05/06 08:19:33;;;;;;;9.52;7.13;;;;;;;19.06;62.51;100732.91;5096027;28;20052;-73
2022/05/06 08:22:01;;;;;;;10.45;7.22;;;;;;;19.41;61.65;100730.66;5095008;28;20135;-71
2022/05/06 08:24:29;;;;;;;10.43;8.07;;;;;;;19.76;60.84;100721.22;5096935;28;20044;-71
2022/05/06 08:26:57;;;;;;;12.18;7.40;;;;;;;19.62;60.76;100729.75;5095182;28;20040;-72
2022/05/06 08:29:25;;;;;;;9.93;6.65;;;;;;;19.71;61.71;100729.75;5096687;28;20135;-71
2022/05/06 08:31:54;;;;;;;8.30;6.47;;;;;;;20.10;60.46;100732.50;5096602;28;20071;-73
2022/05/06 08:34:23;;;;;;;10.52;7.10;;;;;;;20.21;58.28;100726.09;5096640;28;20055;-72
2022/05/06 08:36:52;;;;;;;10.70;7.45;;;;;;;20.51;56.81;100725.09;5096442;28;20119;-72
2022/05/06 08:39:20;;;;;;;8.82;6.35;;;;;;;20.51;56.33;100722.41;5094884;28;20056;-72
2022/05/06 08:41:50;;;;;;;9.50;6.43;;;;;;;20.58;56.26;100720.81;5094993;28;20060;-72
2022/05/06 08:52:43;;;;;;;9.00;6.22;;;;;;;20.95;56.59;100718.16;5094693;28;20051;-71
2022/05/06 08:55:11;;;;;;;9.35;5.78;;;;;;;21.14;55.20;100726.22;5095470;28;20059;-71
2022/05/06 08:57:41;;;;;;;11.57;6.10;;;;;;;21.21;55.31;100731.03;5094572;28;20067;-71
2022/05/06 09:00:11;;;;;;;10.85;6.22;;;;;;;21.36;54.77;100726.88;5095621;28;20048;-71
2022/05/06 09:02:40;;;;;;;10.65;6.03;;;;;;;21.44;53.85;100724.28;5094547;28;20384;-71
2022/05/06 09:05:17;;;;;;;7.93;5.50;;;;;;;21.03;54.37;100726.38;5094227;28;20089;-71
2022/05/06 09:07:58;;;;;;;8.48;5.68;;;;;;;20.95;54.94;100718.16;5094086;28;20461;-71
2022/05/06 09:10:27;;;;;;;8.30;5.80;;;;;;;20.97;54.00;100720.72;5095634;28;20074;-71
2022/05/06 09:12:57;;;;;;;8.02;5.20;;;;;;;20.70;54.78;100721.50;5095489;28;20044;-71
2022/05/06 09:18:18;;;;;;;7.57;5.97;;;;;;;20.89;55.29;100721.47;5095298;28;20037;-70
2022/05/06 09:20:49;;;;;;;7.57;5.78;;;;;;;20.97;54.99;100721.59;5094478;28;20056;-71
2022/05/06 09:23:24;;;;;;;8.30;5.57;;;;;;;20.94;54.81;100721.88;5093900;28;20059;-71
2022/05/06 09:25:53;;;;;;;10.30;5.97;;;;;;;20.96;54.40;100725.28;5093193;28;20048;-71
2022/05/06 09:28:24;;;;;;;7.75;5.50;;;;;;;21.26;53.28;100726.03;5094076;28;20550;-71
2022/05/06 09:31:02;;;;;;;8.40;5.20;;;;;;;21.17;54.28;100724.22;5094551;28;20086;-70
2022/05/06 09:33:32;;;;;;;7.60;5.00;;;;;;;21.09;54.33;100725.81;5095477;28;20477;-71
2022/05/06 09:36:21;;;;;;;10.52;5.20;;;;;;;21.34;53.10;100716.19;5094074;28;20079;-71
2022/05/06 09:39:03;;;;;;;12.20;4.90;;;;;;;21.63;52.63;100724.16;5095137;28;20116;-70
2022/05/06 09:41:38;;;;;;;6.07;4.82;;;;;;;21.81;52.36;100717.88;5094129;28;20040;-70
2022/05/06 09:44:08;;;;;;;7.88;4.60;;;;;;;22.16;50.72;100714.38;5095045;28;20047;-71
2022/05/06 09:46:37;;;;;;;6.72;4.20;;;;;;;22.04;50.54;100713.72;5094232;28;20060;-71
2022/05/06 09:49:06;;;;;;;8.93;4.75;;;;;;;22.24;50.46;100707.16;5094907;28;20082;-71
2022/05/06 09:51:56;;;;;;;9.18;4.93;;;;;;;22.25;48.86;100714.28;5095227;28;20093;-71
2022/05/06 09:54:32;;;;;;;9.40;4.95;;;;;;;22.22;49.63;100711.91;5094789;28;20051;-71
2022/05/06 10:04:06;;;;;;;7.53;4.97;;;;;;;22.43;48.18;100710.69;5093129;28;20055;-72
2022/05/06 10:06:35;;;;;;;10.25;4.90;;;;;;;22.59;47.77;100710.84;5093396;28;20118;-72
2022/05/06 10:09:06;;;;;;;7.45;5.00;;;;;;;22.20;49.00;100711.19;5094569;28;20427;-73
2022/05/06 10:11:34;;;;;;;11.13;5.13;;;;;;;22.53;48.35;100708.75;5093299;28;20477;-71
2022/05/06 10:14:05;;;;;;;9.65;5.93;;;;;;;22.66;48.56;100701.00;5094569;28;20040;-71
2022/05/06 10:16:37;;;;;;;7.80;5.45;;;;;;;22.56;49.18;100702.97;5094381;28;20044;-71
2022/05/06 10:19:25;;;;;;;9.23;5.65;;;;;;;22.62;48.71;100705.06;5093972;28;20036;-72
2022/05/06 10:21:55;;;;;;;10.30;5.95;;;;;;;22.47;49.43;100701.22;5093162;28;20051;-72
2022/05/06 10:24:25;;;;;;;8.75;6.32;;;;;;;22.87;48.67;100713.41;5094264;28;20105;-73
2022/05/06 10:26:56;;;;;;;12.27;6.22;;;;;;;22.93;48.34;100704.63;5094324;28;20126;-73
2022/05/06 10:32:52;;;;;;;11.80;6.20;;;;;;;22.65;49.44;100695.72;5060271;28;20063;-73
2022/05/06 10:35:42;;;;;;;8.93;6.35;;;;;;;22.65;49.43;100695.72;5093951;28;20377;-71
2022/05/06 10:38:25;;;;;;;9.43;6.47;;;;;;;23.00;48.25;100700.25;5093562;28;20051;-73
2022/05/06 10:41:02;;;;;;;11.82;6.80;;;;;;;22.35;49.56;100683.44;5093982;28;20528;-71
2022/05/06 10:43:50;;;;;;;13.90;8.15;;;;;;;22.84;49.16;100690.09;5092216;28;20059;-73
2022/05/06 10:46:46;;;;;;;10.13;6.45;;;;;;;22.76;49.88;100696.31;5092253;28;20048;-72
2022/05/06 10:49:47;;;;;;;8.48;6.32;;;;;;;23.15;49.38;100685.00;5034897;28;20108;-73
2022/05/06 10:52:39;;;;;;;12.85;6.43;;;;;;;23.36;48.92;100688.19;5092179;28;20048;-73
2022/05/06 10:55:10;;;;;;;7.60;5.63;;;;;;;23.54;48.36;100681.75;5092371;28;20048;-76
2022/05/06 10:57:49;;;;;;;7.55;5.80;;;;;;;23.37;48.28;100681.72;5092646;28;20079;-72
2022/05/06 11:00:19;;;;;;;8.45;5.93;;;;;;;23.36;48.69;100677.28;5093263;28;20094;-72
2022/05/06 11:02:48;;;;;;;10.93;6.32;;;;;;;23.50;47.86;100677.66;5092362;28;20088;-72
2022/05/06 11:05:17;;;;;;;9.07;6.20;;;;;;;23.18;48.93;100673.81;5093505;28;20393;-72
2022/05/06 11:07:48;;;;;;;9.75;6.53;;;;;;;22.74;50.28;100671.16;5093380;28;20044;-72
2022/05/06 11:10:18;;;;;;;8.90;5.90;;;;;;;23.12;49.57;100664.41;5092215;28;20052;-72
2022/05/06 11:12:49;;;;;;;8.63;5.97;;;;;;;23.37;48.78;100667.25;5093575;28;20044;-72
2022/05/06 11:15:19;;;;;;;9.25;5.82;;;;;;;23.65;47.45;100655.09;5093562;28;20048;-72
2022/05/06 11:17:48;;;;;;;9.90;5.95;;;;;;;23.41;47.12;100672.19;5093758;28;20048;-72
2022/05/06 11:20:19;;;;;;;9.15;5.68;;;;;;;23.23;48.08;100665.13;5092014;28;20099;-72
2022/05/06 11:23:06;;;;;;;9.65;6.15;;;;;;;23.49;46.72;100665.06;5092148;28;20084;-72
2022/05/06 11:25:36;;;;;;;9.07;5.82;;;;;;;23.42;46.19;100660.28;5093463;28;20040;-72
2022/05/06 11:28:13;;;;;;;12.55;5.53;;;;;;;23.36;46.27;100660.09;5093651;28;20055;-72
2022/05/06 11:30:44;;;;;;;8.40;5.65;;;;;;;23.43;46.59;100661.13;5092288;28;20097;-72
2022/05/06 11:33:20;;;;;;;9.48;5.65;;;;;;;23.55;46.54;100648.94;5091559;28;20077;-72
2022/05/06 11:35:50;;;;;;;10.82;6.13;;;;;;;23.54;46.21;100655.38;5093462;28;20476;-72
2022/05/06 11:38:29;;;;;;;9.70;5.57;;;;;;;23.58;46.22;100648.59;5092974;28;20036;-72
2022/05/06 11:41:06;;;;;;;10.02;5.75;;;;;;;23.30;46.95;100648.00;5092593;28;20135;-72
2022/05/06 11:43:36;;;;;;;13.88;6.32;;;;;;;23.38;47.52;100641.72;5091800;28;20052;-72
2022/05/06 11:48:56;;;;;;;8.43;5.68;;;;;;;23.32;47.29;100647.81;5000988;28;20058;-72
2022/05/06 11:51:30;;;;;;;9.43;6.18;;;;;;;23.27;46.87;100645.63;5093084;28;20077;-72
2022/05/06 11:54:00;;;;;;;7.15;5.32;;;;;;;23.05;47.73;100651.63;5092989;28;20097;-72
2022/05/06 11:56:34;;;;;;;8.25;5.15;;;;;;;23.45;46.95;100650.06;5091584;28;20134;-71
2022/05/06 11:59:05;;;;;;;10.05;6.07;;;;;;;23.11;48.32;100640.09;5091604;28;20473;-72
2022/05/06 12:01:36;;;;;;;6.60;5.25;;;;;;;23.41;47.22;100636.78;5091446;28;20155;-72
2022/05/06 12:04:06;;;;;;;7.70;4.95;;;;;;;23.53;46.73;100639.19;5092908;28;20215;-72
2022/05/06 12:06:38;;;;;;;10.68;5.18;;;;;;;23.25;47.56;100638.59;5090973;28;20047;-71
2022/05/06 12:09:09;;;;;;;9.77;5.60;;;;;;;23.49;46.62;100638.69;5091482;28;20048;-72
2022/05/06 12:11:38;;;;;;;7.68;5.78;;;;;;;23.52;46.93;100623.88;5091235;28;20054;-72
2022/05/06 12:14:08;;;;;;;8.23;6.00;;;;;;;23.62;47.22;100627.34;5092618;28;20089;-72
2022/05/06 12:16:37;;;;;;;10.25;5.45;;;;;;;23.60;47.51;100629.38;5092239;28;20499;-72
2022/05/06 12:19:05;;;;;;;7.30;5.38;;;;;;;23.87;45.74;100628.25;5091328;28;20048;-72
2022/05/06 12:21:36;;;;;;;7.45;4.97;;;;;;;23.63;46.06;100623.59;5092078;28;20047;-71